sensor_id;sensor_type;location;lat;lon;timestamp;P1;durP1;ratioP1;P2;durP2;ratioP2
14342;SDS011;7255;53.596;9.960;2023-02-21T00:01:22;7.72;;;4.68;;
14342;SDS011;7255;53.596;9.960;2023-02-21T00:04:05;7.65;;;3.90;;
14342;SDS011;7255;53.596;9.960;2023-02-21T00:06:49;10.13;;;4.12;;
14342;SDS011;7255;53.596;9.960;2023-02-21T00:09:37;5.72;;;3.58;;
14342;SDS011;7255;53.596;9.960;2023-02-21T00:12:21;7.35;;;3.65;;
14342;SDS011;7255;53.596;9.960;2023-02-21T00:15:05;6.82;;;4.22;;
14342;SDS011;7255;53.596;9.960;2023-02-21T00:17:50;6.90;;;3.53;;
14342;SDS011;7255;53.596;9.960;2023-02-21T00:20:34;5.87;;;3.78;;
14342;SDS011;7255;53.596;9.960;2023-02-21T00:23:18;8.55;;;3.70;;
14342;SDS011;7255;53.596;9.960;2023-02-21T00:26:04;8.90;;;3.45;;
14342;SDS011;7255;53.596;9.960;2023-02-21T00:28:48;7.43;;;3.20;;
14342;SDS011;7255;53.596;9.960;2023-02-21T00:31:32;4.78;;;3.10;;
14342;SDS011;7255;53.596;9.960;2023-02-21T00:34:16;5.57;;;3.00;;
14342;SDS011;7255;53.596;9.960;2023-02-21T00:37:00;4.70;;;2.67;;
14342;SDS011;7255;53.596;9.960;2023-02-21T00:39:44;6.43;;;2.87;;
14342;SDS011;7255;53.596;9.960;2023-02-21T00:42:30;5.85;;;2.35;;
14342;SDS011;7255;53.596;9.960;2023-02-21T00:45:14;5.15;;;2.30;;
14342;SDS011;7255;53.596;9.960;2023-02-21T00:47:58;3.75;;;2.30;;
14342;SDS011;7255;53.596;9.960;2023-02-21T00:50:42;4.00;;;2.60;;
14342;SDS011;7255;53.596;9.960;2023-02-21T00:53:26;3.33;;;2.22;;
14342;SDS011;7255;53.596;9.960;2023-02-21T00:56:10;4.43;;;2.42;;
14342;SDS011;7255;53.596;9.960;2023-02-21T00:58:55;3.53;;;2.25;;
14342;SDS011;7255;53.596;9.960;2023-02-21T01:01:39;4.10;;;2.83;;
14342;SDS011;7255;53.596;9.960;2023-02-21T01:04:23;3.62;;;2.12;;
14342;SDS011;7255;53.596;9.960;2023-02-21T01:07:07;5.75;;;2.55;;
14342;SDS011;7255;53.596;9.960;2023-02-21T01:09:51;3.78;;;2.20;;
14342;SDS011;7255;53.596;9.960;2023-02-21T01:12:35;3.95;;;2.40;;
14342;SDS011;7255;53.596;9.960;2023-02-21T01:15:21;3.12;;;2.50;;
14342;SDS011;7255;53.596;9.960;2023-02-21T01:18:05;2.85;;;2.10;;
14342;SDS011;7255;53.596;9.960;2023-02-21T01:20:49;5.35;;;2.60;;
14342;SDS011;7255;53.596;9.960;2023-02-21T01:23:33;5.80;;;2.30;;
14342;SDS011;7255;53.596;9.960;2023-02-21T01:26:17;3.17;;;2.42;;
14342;SDS011;7255;53.596;9.960;2023-02-21T01:29:01;3.22;;;2.30;;
14342;SDS011;7255;53.596;9.960;2023-02-21T01:31:47;5.68;;;2.50;;
14342;SDS011;7255;53.596;9.960;2023-02-21T01:34:31;4.35;;;2.80;;
14342;SDS011;7255;53.596;9.960;2023-02-21T01:37:15;5.00;;;3.10;;
14342;SDS011;7255;53.596;9.960;2023-02-21T01:39:59;4.32;;;2.42;;
14342;SDS011;7255;53.596;9.960;2023-02-21T01:42:43;4.43;;;2.22;;
14342;SDS011;7255;53.596;9.960;2023-02-21T01:45:33;3.00;;;2.37;;
14342;SDS011;7255;53.596;9.960;2023-02-21T01:48:26;2.60;;;2.15;;
14342;SDS011;7255;53.596;9.960;2023-02-21T01:51:13;2.78;;;2.30;;
14342;SDS011;7255;53.596;9.960;2023-02-21T01:54:03;2.55;;;2.28;;
14342;SDS011;7255;53.596;9.960;2023-02-21T01:56:49;2.60;;;1.95;;
14342;SDS011;7255;53.596;9.960;2023-02-21T01:59:36;2.72;;;2.00;;
14342;SDS011;7255;53.596;9.960;2023-02-21T02:02:21;2.80;;;2.00;;
14342;SDS011;7255;53.596;9.960;2023-02-21T02:05:11;2.90;;;2.35;;
14342;SDS011;7255;53.596;9.960;2023-02-21T02:07:56;3.25;;;2.45;;
14342;SDS011;7255;53.596;9.960;2023-02-21T02:10:40;3.05;;;2.60;;
14342;SDS011;7255;53.596;9.960;2023-02-21T02:13:34;7.10;;;2.60;;
14342;SDS011;7255;53.596;9.960;2023-02-21T02:16:12;6.43;;;2.78;;
14342;SDS011;7255;53.596;9.960;2023-02-21T02:18:54;5.15;;;2.62;;
14342;SDS011;7255;53.596;9.960;2023-02-21T02:21:40;4.72;;;2.53;;
14342;SDS011;7255;53.596;9.960;2023-02-21T02:24:26;3.50;;;3.05;;
14342;SDS011;7255;53.596;9.960;2023-02-21T02:33:40;6.55;;;2.80;;
14342;SDS011;7255;53.596;9.960;2023-02-21T02:36:27;4.50;;;2.45;;
14342;SDS011;7255;53.596;9.960;2023-02-21T02:38:59;7.07;;;2.95;;
14342;SDS011;7255;53.596;9.960;2023-02-21T02:41:32;5.85;;;2.50;;
14342;SDS011;7255;53.596;9.960;2023-02-21T02:44:11;5.05;;;2.35;;
14342;SDS011;7255;53.596;9.960;2023-02-21T02:46:44;5.57;;;2.30;;
14342;SDS011;7255;53.596;9.960;2023-02-21T02:49:15;4.47;;;2.00;;
14342;SDS011;7255;53.596;9.960;2023-02-21T02:51:45;4.30;;;2.25;;
14342;SDS011;7255;53.596;9.960;2023-02-21T02:54:12;3.17;;;2.20;;
14342;SDS011;7255;53.596;9.960;2023-02-21T02:56:39;4.90;;;2.10;;
14342;SDS011;7255;53.596;9.960;2023-02-21T02:59:06;3.08;;;2.17;;
14342;SDS011;7255;53.596;9.960;2023-02-21T03:01:39;4.25;;;2.45;;
14342;SDS011;7255;53.596;9.960;2023-02-21T03:04:22;4.12;;;2.00;;
14342;SDS011;7255;53.596;9.960;2023-02-21T03:07:04;4.57;;;2.03;;
14342;SDS011;7255;53.596;9.960;2023-02-21T03:09:41;4.85;;;2.20;;
14342;SDS011;7255;53.596;9.960;2023-02-21T03:12:17;2.97;;;2.20;;
14342;SDS011;7255;53.596;9.960;2023-02-21T03:14:58;3.65;;;2.42;;
14342;SDS011;7255;53.596;9.960;2023-02-21T03:17:27;2.60;;;2.08;;
14342;SDS011;7255;53.596;9.960;2023-02-21T03:19:58;2.50;;;2.28;;
14342;SDS011;7255;53.596;9.960;2023-02-21T03:22:29;5.78;;;2.35;;
14342;SDS011;7255;53.596;9.960;2023-02-21T03:24:57;4.07;;;2.10;;
14342;SDS011;7255;53.596;9.960;2023-02-21T03:27:26;2.40;;;2.05;;
14342;SDS011;7255;53.596;9.960;2023-02-21T03:29:56;3.05;;;2.17;;
14342;SDS011;7255;53.596;9.960;2023-02-21T03:32:27;4.65;;;2.12;;
14342;SDS011;7255;53.596;9.960;2023-02-21T03:34:54;2.97;;;2.10;;
14342;SDS011;7255;53.596;9.960;2023-02-21T03:37:29;2.42;;;2.22;;
14342;SDS011;7255;53.596;9.960;2023-02-21T03:39:58;4.03;;;2.75;;
14342;SDS011;7255;53.596;9.960;2023-02-21T03:42:26;2.83;;;2.42;;
14342;SDS011;7255;53.596;9.960;2023-02-21T03:44:52;3.35;;;2.35;;
14342;SDS011;7255;53.596;9.960;2023-02-21T03:47:18;4.25;;;2.90;;
14342;SDS011;7255;53.596;9.960;2023-02-21T03:49:45;4.05;;;2.50;;
14342;SDS011;7255;53.596;9.960;2023-02-21T03:52:12;5.10;;;2.97;;
14342;SDS011;7255;53.596;9.960;2023-02-21T03:54:40;4.07;;;3.67;;
14342;SDS011;7255;53.596;9.960;2023-02-21T03:57:07;4.80;;;3.28;;
14342;SDS011;7255;53.596;9.960;2023-02-21T03:59:33;4.00;;;3.42;;
14342;SDS011;7255;53.596;9.960;2023-02-21T04:02:00;4.57;;;3.80;;
14342;SDS011;7255;53.596;9.960;2023-02-21T04:04:26;7.45;;;4.07;;
14342;SDS011;7255;53.596;9.960;2023-02-21T04:06:52;5.37;;;3.50;;
14342;SDS011;7255;53.596;9.960;2023-02-21T04:09:19;5.32;;;3.80;;
14342;SDS011;7255;53.596;9.960;2023-02-21T04:11:47;5.55;;;3.97;;
14342;SDS011;7255;53.596;9.960;2023-02-21T04:14:13;4.62;;;3.10;;
14342;SDS011;7255;53.596;9.960;2023-02-21T04:16:39;5.00;;;3.37;;
14342;SDS011;7255;53.596;9.960;2023-02-21T04:19:06;5.03;;;3.00;;
14342;SDS011;7255;53.596;9.960;2023-02-21T04:21:33;8.05;;;3.80;;
14342;SDS011;7255;53.596;9.960;2023-02-21T04:23:59;5.60;;;3.53;;
14342;SDS011;7255;53.596;9.960;2023-02-21T04:26:26;9.43;;;3.37;;
14342;SDS011;7255;53.596;9.960;2023-02-21T04:28:55;6.80;;;3.42;;
14342;SDS011;7255;53.596;9.960;2023-02-21T04:31:21;8.90;;;4.07;;
14342;SDS011;7255;53.596;9.960;2023-02-21T04:33:48;8.18;;;3.47;;
14342;SDS011;7255;53.596;9.960;2023-02-21T04:36:14;9.32;;;3.28;;
14342;SDS011;7255;53.596;9.960;2023-02-21T04:38:41;12.50;;;3.87;;
14342;SDS011;7255;53.596;9.960;2023-02-21T04:41:07;11.85;;;3.53;;
14342;SDS011;7255;53.596;9.960;2023-02-21T04:43:34;9.10;;;4.00;;
14342;SDS011;7255;53.596;9.960;2023-02-21T04:46:01;11.60;;;3.97;;
14342;SDS011;7255;53.596;9.960;2023-02-21T04:48:28;13.15;;;4.18;;
14342;SDS011;7255;53.596;9.960;2023-02-21T04:50:54;14.52;;;3.55;;
14342;SDS011;7255;53.596;9.960;2023-02-21T04:53:20;12.88;;;3.17;;
14342;SDS011;7255;53.596;9.960;2023-02-21T04:55:47;14.03;;;2.97;;
14342;SDS011;7255;53.596;9.960;2023-02-21T04:58:13;12.23;;;3.67;;
14342;SDS011;7255;53.596;9.960;2023-02-21T05:00:39;14.10;;;3.67;;
14342;SDS011;7255;53.596;9.960;2023-02-21T05:03:07;12.50;;;3.63;;
14342;SDS011;7255;53.596;9.960;2023-02-21T05:05:33;14.85;;;4.53;;
14342;SDS011;7255;53.596;9.960;2023-02-21T05:08:00;17.52;;;3.12;;
14342;SDS011;7255;53.596;9.960;2023-02-21T05:10:26;10.97;;;3.70;;
14342;SDS011;7255;53.596;9.960;2023-02-21T05:12:52;16.73;;;3.97;;
14342;SDS011;7255;53.596;9.960;2023-02-21T05:15:18;17.83;;;4.40;;
14342;SDS011;7255;53.596;9.960;2023-02-21T05:17:45;17.73;;;3.77;;
14342;SDS011;7255;53.596;9.960;2023-02-21T05:20:13;14.13;;;3.40;;
14342;SDS011;7255;53.596;9.960;2023-02-21T05:22:39;13.90;;;3.53;;
14342;SDS011;7255;53.596;9.960;2023-02-21T05:25:08;12.30;;;4.20;;
14342;SDS011;7255;53.596;9.960;2023-02-21T05:27:40;17.15;;;4.03;;
14342;SDS011;7255;53.596;9.960;2023-02-21T05:30:07;16.12;;;4.07;;
14342;SDS011;7255;53.596;9.960;2023-02-21T05:32:34;12.52;;;3.53;;
14342;SDS011;7255;53.596;9.960;2023-02-21T05:35:00;15.87;;;5.83;;
14342;SDS011;7255;53.596;9.960;2023-02-21T05:37:28;20.83;;;4.68;;
14342;SDS011;7255;53.596;9.960;2023-02-21T05:39:54;14.97;;;3.90;;
14342;SDS011;7255;53.596;9.960;2023-02-21T05:42:21;20.70;;;4.20;;
14342;SDS011;7255;53.596;9.960;2023-02-21T05:44:47;21.70;;;4.60;;
14342;SDS011;7255;53.596;9.960;2023-02-21T05:47:13;18.58;;;4.62;;
14342;SDS011;7255;53.596;9.960;2023-02-21T05:49:40;13.63;;;4.33;;
14342;SDS011;7255;53.596;9.960;2023-02-21T05:52:07;18.90;;;4.07;;
14342;SDS011;7255;53.596;9.960;2023-02-21T05:54:37;17.37;;;5.75;;
14342;SDS011;7255;53.596;9.960;2023-02-21T05:57:04;18.75;;;5.07;;
14342;SDS011;7255;53.596;9.960;2023-02-21T05:59:30;22.80;;;4.63;;
14342;SDS011;7255;53.596;9.960;2023-02-21T06:01:57;17.83;;;4.93;;
14342;SDS011;7255;53.596;9.960;2023-02-21T06:04:23;14.10;;;4.10;;
14342;SDS011;7255;53.596;9.960;2023-02-21T06:06:50;16.57;;;4.23;;
14342;SDS011;7255;53.596;9.960;2023-02-21T06:09:16;14.87;;;4.10;;
14342;SDS011;7255;53.596;9.960;2023-02-21T06:11:44;22.47;;;6.80;;
14342;SDS011;7255;53.596;9.960;2023-02-21T06:14:12;16.07;;;3.80;;
14342;SDS011;7255;53.596;9.960;2023-02-21T06:16:40;20.77;;;4.57;;
14342;SDS011;7255;53.596;9.960;2023-02-21T06:19:07;18.10;;;4.62;;
14342;SDS011;7255;53.596;9.960;2023-02-21T06:21:34;17.17;;;4.43;;
14342;SDS011;7255;53.596;9.960;2023-02-21T06:24:01;18.47;;;4.03;;
14342;SDS011;7255;53.596;9.960;2023-02-21T06:26:28;14.50;;;4.17;;
14342;SDS011;7255;53.596;9.960;2023-02-21T06:28:55;12.00;;;3.83;;
14342;SDS011;7255;53.596;9.960;2023-02-21T06:31:22;16.73;;;4.87;;
14342;SDS011;7255;53.596;9.960;2023-02-21T06:33:48;16.93;;;5.60;;
14342;SDS011;7255;53.596;9.960;2023-02-21T06:36:16;17.45;;;3.47;;
14342;SDS011;7255;53.596;9.960;2023-02-21T06:38:43;13.30;;;3.80;;
14342;SDS011;7255;53.596;9.960;2023-02-21T06:41:10;21.33;;;4.80;;
14342;SDS011;7255;53.596;9.960;2023-02-21T06:43:40;20.80;;;5.13;;
14342;SDS011;7255;53.596;9.960;2023-02-21T06:46:08;18.13;;;4.23;;
14342;SDS011;7255;53.596;9.960;2023-02-21T06:48:34;19.17;;;4.50;;
14342;SDS011;7255;53.596;9.960;2023-02-21T06:51:01;21.53;;;4.53;;
14342;SDS011;7255;53.596;9.960;2023-02-21T06:53:29;16.08;;;4.10;;
14342;SDS011;7255;53.596;9.960;2023-02-21T06:55:55;20.67;;;4.20;;
14342;SDS011;7255;53.596;9.960;2023-02-21T06:58:22;14.40;;;4.40;;
14342;SDS011;7255;53.596;9.960;2023-02-21T07:00:48;18.65;;;5.28;;
14342;SDS011;7255;53.596;9.960;2023-02-21T07:03:16;15.77;;;4.60;;
14342;SDS011;7255;53.596;9.960;2023-02-21T07:05:42;21.40;;;4.50;;
14342;SDS011;7255;53.596;9.960;2023-02-21T07:08:09;21.10;;;4.50;;
14342;SDS011;7255;53.596;9.960;2023-02-21T07:10:35;22.27;;;4.37;;
14342;SDS011;7255;53.596;9.960;2023-02-21T07:13:02;12.33;;;4.27;;
14342;SDS011;7255;53.596;9.960;2023-02-21T07:15:28;22.73;;;5.33;;
14342;SDS011;7255;53.596;9.960;2023-02-21T07:17:55;11.10;;;3.77;;
14342;SDS011;7255;53.596;9.960;2023-02-21T07:20:22;15.37;;;4.50;;
14342;SDS011;7255;53.596;9.960;2023-02-21T07:22:49;16.65;;;4.05;;
14342;SDS011;7255;53.596;9.960;2023-02-21T07:25:16;19.27;;;4.55;;
14342;SDS011;7255;53.596;9.960;2023-02-21T07:27:45;20.27;;;3.90;;
14342;SDS011;7255;53.596;9.960;2023-02-21T07:30:11;16.73;;;4.47;;
14342;SDS011;7255;53.596;9.960;2023-02-21T07:32:38;15.03;;;4.13;;
14342;SDS011;7255;53.596;9.960;2023-02-21T07:35:05;9.60;;;3.83;;
14342;SDS011;7255;53.596;9.960;2023-02-21T07:37:33;17.23;;;5.35;;
14342;SDS011;7255;53.596;9.960;2023-02-21T07:39:59;15.43;;;4.63;;
14342;SDS011;7255;53.596;9.960;2023-02-21T07:42:26;13.02;;;4.43;;
14342;SDS011;7255;53.596;9.960;2023-02-21T07:44:54;18.20;;;4.55;;
14342;SDS011;7255;53.596;9.960;2023-02-21T07:47:22;16.70;;;4.30;;
14342;SDS011;7255;53.596;9.960;2023-02-21T07:49:49;11.23;;;3.87;;
14342;SDS011;7255;53.596;9.960;2023-02-21T07:52:15;16.92;;;4.10;;
14342;SDS011;7255;53.596;9.960;2023-02-21T07:54:43;11.82;;;3.20;;
14342;SDS011;7255;53.596;9.960;2023-02-21T07:57:10;12.07;;;4.62;;
14342;SDS011;7255;53.596;9.960;2023-02-21T07:59:36;12.15;;;4.15;;
14342;SDS011;7255;53.596;9.960;2023-02-21T08:02:03;19.43;;;4.60;;
14342;SDS011;7255;53.596;9.960;2023-02-21T08:04:30;21.20;;;4.85;;
14342;SDS011;7255;53.596;9.960;2023-02-21T08:07:00;15.15;;;5.07;;
14342;SDS011;7255;53.596;9.960;2023-02-21T08:09:27;18.30;;;4.50;;
14342;SDS011;7255;53.596;9.960;2023-02-21T08:11:55;14.75;;;4.72;;
14342;SDS011;7255;53.596;9.960;2023-02-21T08:14:21;15.18;;;4.30;;
14342;SDS011;7255;53.596;9.960;2023-02-21T08:16:47;17.23;;;6.00;;
14342;SDS011;7255;53.596;9.960;2023-02-21T08:19:14;20.75;;;4.80;;
14342;SDS011;7255;53.596;9.960;2023-02-21T08:21:43;18.05;;;4.87;;
14342;SDS011;7255;53.596;9.960;2023-02-21T08:24:09;11.65;;;4.22;;
14342;SDS011;7255;53.596;9.960;2023-02-21T08:26:36;17.92;;;4.90;;
14342;SDS011;7255;53.596;9.960;2023-02-21T08:29:05;18.00;;;4.60;;
14342;SDS011;7255;53.596;9.960;2023-02-21T08:31:33;17.27;;;4.35;;
14342;SDS011;7255;53.596;9.960;2023-02-21T08:34:00;12.35;;;3.97;;
14342;SDS011;7255;53.596;9.960;2023-02-21T08:36:29;15.30;;;3.95;;
14342;SDS011;7255;53.596;9.960;2023-02-21T08:38:56;13.38;;;3.87;;
14342;SDS011;7255;53.596;9.960;2023-02-21T08:41:22;16.00;;;4.40;;
14342;SDS011;7255;53.596;9.960;2023-02-21T08:43:49;14.30;;;3.87;;
14342;SDS011;7255;53.596;9.960;2023-02-21T08:46:17;16.33;;;5.50;;
14342;SDS011;7255;53.596;9.960;2023-02-21T08:48:43;15.32;;;4.78;;
14342;SDS011;7255;53.596;9.960;2023-02-21T08:51:10;16.92;;;4.15;;
14342;SDS011;7255;53.596;9.960;2023-02-21T08:53:36;13.95;;;4.05;;
14342;SDS011;7255;53.596;9.960;2023-02-21T08:56:02;10.40;;;4.18;;
14342;SDS011;7255;53.596;9.960;2023-02-21T08:58:29;17.62;;;4.15;;
14342;SDS011;7255;53.596;9.960;2023-02-21T09:00:55;16.55;;;4.78;;
14342;SDS011;7255;53.596;9.960;2023-02-21T09:03:23;14.68;;;3.72;;
14342;SDS011;7255;53.596;9.960;2023-02-21T09:05:49;18.83;;;4.00;;
14342;SDS011;7255;53.596;9.960;2023-02-21T09:08:16;17.92;;;5.57;;
14342;SDS011;7255;53.596;9.960;2023-02-21T09:10:44;15.25;;;3.85;;
14342;SDS011;7255;53.596;9.960;2023-02-21T09:13:13;18.23;;;4.72;;
14342;SDS011;7255;53.596;9.960;2023-02-21T09:15:39;15.25;;;4.22;;
14342;SDS011;7255;53.596;9.960;2023-02-21T09:18:06;13.38;;;4.22;;
14342;SDS011;7255;53.596;9.960;2023-02-21T09:20:33;14.93;;;4.55;;
14342;SDS011;7255;53.596;9.960;2023-02-21T09:23:01;10.05;;;3.58;;
14342;SDS011;7255;53.596;9.960;2023-02-21T09:25:28;12.57;;;3.92;;
14342;SDS011;7255;53.596;9.960;2023-02-21T09:27:54;19.42;;;4.72;;
14342;SDS011;7255;53.596;9.960;2023-02-21T09:30:23;17.20;;;4.57;;
14342;SDS011;7255;53.596;9.960;2023-02-21T09:32:50;14.87;;;4.62;;
14342;SDS011;7255;53.596;9.960;2023-02-21T09:35:17;17.00;;;4.37;;
14342;SDS011;7255;53.596;9.960;2023-02-21T09:37:45;13.70;;;3.80;;
14342;SDS011;7255;53.596;9.960;2023-02-21T09:40:14;9.90;;;3.60;;
14342;SDS011;7255;53.596;9.960;2023-02-21T09:42:47;13.18;;;3.83;;
14342;SDS011;7255;53.596;9.960;2023-02-21T09:45:15;10.30;;;3.40;;
14342;SDS011;7255;53.596;9.960;2023-02-21T09:47:43;12.15;;;3.95;;
14342;SDS011;7255;53.596;9.960;2023-02-21T09:50:14;14.52;;;3.40;;
14342;SDS011;7255;53.596;9.960;2023-02-21T09:52:47;15.32;;;3.95;;
14342;SDS011;7255;53.596;9.960;2023-02-21T09:55:28;11.95;;;3.92;;
14342;SDS011;7255;53.596;9.960;2023-02-21T09:57:56;11.20;;;3.50;;
14342;SDS011;7255;53.596;9.960;2023-02-21T10:00:23;17.77;;;3.78;;
14342;SDS011;7255;53.596;9.960;2023-02-21T10:02:56;16.60;;;3.65;;
14342;SDS011;7255;53.596;9.960;2023-02-21T10:05:32;14.10;;;3.95;;
14342;SDS011;7255;53.596;9.960;2023-02-21T10:08:11;14.70;;;4.32;;
14342;SDS011;7255;53.596;9.960;2023-02-21T10:10:44;10.05;;;3.30;;
14342;SDS011;7255;53.596;9.960;2023-02-21T10:13:17;12.40;;;3.42;;
14342;SDS011;7255;53.596;9.960;2023-02-21T10:15:51;12.05;;;3.58;;
14342;SDS011;7255;53.596;9.960;2023-02-21T10:18:27;11.23;;;3.78;;
14342;SDS011;7255;53.596;9.960;2023-02-21T10:21:00;14.65;;;3.92;;
14342;SDS011;7255;53.596;9.960;2023-02-21T10:23:31;16.55;;;4.07;;
14342;SDS011;7255;53.596;9.960;2023-02-21T10:26:03;12.70;;;3.62;;
14342;SDS011;7255;53.596;9.960;2023-02-21T10:28:33;16.02;;;3.30;;
14342;SDS011;7255;53.596;9.960;2023-02-21T10:31:02;15.15;;;3.80;;
14342;SDS011;7255;53.596;9.960;2023-02-21T10:33:33;11.12;;;3.42;;
14342;SDS011;7255;53.596;9.960;2023-02-21T10:36:05;21.33;;;4.03;;
14342;SDS011;7255;53.596;9.960;2023-02-21T10:38:37;16.27;;;4.00;;
14342;SDS011;7255;53.596;9.960;2023-02-21T10:41:05;12.55;;;3.58;;
14342;SDS011;7255;53.596;9.960;2023-02-21T10:43:33;11.70;;;3.30;;
14342;SDS011;7255;53.596;9.960;2023-02-21T10:46:04;15.65;;;3.87;;
14342;SDS011;7255;53.596;9.960;2023-02-21T10:48:38;15.70;;;3.85;;
14342;SDS011;7255;53.596;9.960;2023-02-21T10:51:11;11.43;;;3.53;;
14342;SDS011;7255;53.596;9.960;2023-02-21T10:53:41;9.20;;;3.33;;
14342;SDS011;7255;53.596;9.960;2023-02-21T10:56:13;12.70;;;3.28;;
14342;SDS011;7255;53.596;9.960;2023-02-21T10:58:47;9.00;;;3.42;;
14342;SDS011;7255;53.596;9.960;2023-02-21T11:01:16;10.98;;;3.50;;
14342;SDS011;7255;53.596;9.960;2023-02-21T11:03:45;13.70;;;4.00;;
14342;SDS011;7255;53.596;9.960;2023-02-21T11:06:20;13.27;;;3.35;;
14342;SDS011;7255;53.596;9.960;2023-02-21T11:08:51;13.45;;;3.67;;
14342;SDS011;7255;53.596;9.960;2023-02-21T11:11:24;16.60;;;3.55;;
14342;SDS011;7255;53.596;9.960;2023-02-21T11:14:06;10.50;;;4.03;;
14342;SDS011;7255;53.596;9.960;2023-02-21T11:16:46;10.52;;;3.33;;
14342;SDS011;7255;53.596;9.960;2023-02-21T11:19:33;7.80;;;2.70;;
14342;SDS011;7255;53.596;9.960;2023-02-21T11:22:10;13.75;;;3.22;;
14342;SDS011;7255;53.596;9.960;2023-02-21T11:24:53;8.80;;;3.42;;
14342;SDS011;7255;53.596;9.960;2023-02-21T11:27:24;11.88;;;3.58;;
14342;SDS011;7255;53.596;9.960;2023-02-21T11:29:51;12.75;;;3.53;;
14342;SDS011;7255;53.596;9.960;2023-02-21T11:32:21;8.05;;;2.60;;
14342;SDS011;7255;53.596;9.960;2023-02-21T11:34:50;12.13;;;3.28;;
14342;SDS011;7255;53.596;9.960;2023-02-21T11:37:30;9.82;;;3.45;;
14342;SDS011;7255;53.596;9.960;2023-02-21T11:39:58;10.25;;;2.97;;
14342;SDS011;7255;53.596;9.960;2023-02-21T11:42:27;8.90;;;2.83;;
14342;SDS011;7255;53.596;9.960;2023-02-21T11:45:09;9.02;;;2.90;;
14342;SDS011;7255;53.596;9.960;2023-02-21T11:47:42;9.90;;;3.62;;
14342;SDS011;7255;53.596;9.960;2023-02-21T11:50:14;8.05;;;2.50;;
14342;SDS011;7255;53.596;9.960;2023-02-21T11:52:48;11.23;;;3.25;;
14342;SDS011;7255;53.596;9.960;2023-02-21T11:55:21;8.45;;;2.58;;
14342;SDS011;7255;53.596;9.960;2023-02-21T11:57:50;10.45;;;2.75;;
14342;SDS011;7255;53.596;9.960;2023-02-21T12:00:24;8.88;;;3.08;;
14342;SDS011;7255;53.596;9.960;2023-02-21T12:05:58;10.77;;;3.35;;
14342;SDS011;7255;53.596;9.960;2023-02-21T12:08:38;8.48;;;2.97;;
14342;SDS011;7255;53.596;9.960;2023-02-21T12:11:18;8.88;;;2.15;;
14342;SDS011;7255;53.596;9.960;2023-02-21T12:14:11;7.95;;;2.37;;
14342;SDS011;7255;53.596;9.960;2023-02-21T12:16:47;7.20;;;2.28;;
14342;SDS011;7255;53.596;9.960;2023-02-21T12:19:33;5.55;;;2.33;;
14342;SDS011;7255;53.596;9.960;2023-02-21T12:22:23;4.95;;;2.45;;
14342;SDS011;7255;53.596;9.960;2023-02-21T12:25:02;7.47;;;2.60;;
14342;SDS011;7255;53.596;9.960;2023-02-21T12:27:41;6.70;;;2.28;;
14342;SDS011;7255;53.596;9.960;2023-02-21T12:30:20;8.38;;;2.65;;
14342;SDS011;7255;53.596;9.960;2023-02-21T12:33:02;9.25;;;2.72;;
14342;SDS011;7255;53.596;9.960;2023-02-21T12:35:54;8.70;;;2.58;;
14342;SDS011;7255;53.596;9.960;2023-02-21T12:38:38;7.75;;;2.83;;
14342;SDS011;7255;53.596;9.960;2023-02-21T12:41:18;8.93;;;2.60;;
14342;SDS011;7255;53.596;9.960;2023-02-21T12:43:58;10.52;;;3.25;;
14342;SDS011;7255;53.596;9.960;2023-02-21T12:46:31;7.37;;;3.03;;
14342;SDS011;7255;53.596;9.960;2023-02-21T12:49:02;7.68;;;2.65;;
14342;SDS011;7255;53.596;9.960;2023-02-21T12:51:34;3.35;;;2.03;;
14342;SDS011;7255;53.596;9.960;2023-02-21T12:54:04;7.72;;;2.47;;
14342;SDS011;7255;53.596;9.960;2023-02-21T12:56:35;6.45;;;2.45;;
14342;SDS011;7255;53.596;9.960;2023-02-21T12:59:10;5.60;;;2.85;;
14342;SDS011;7255;53.596;9.960;2023-02-21T13:01:42;8.35;;;3.05;;
14342;SDS011;7255;53.596;9.960;2023-02-21T13:04:15;4.00;;;2.70;;
14342;SDS011;7255;53.596;9.960;2023-02-21T13:06:49;10.73;;;2.60;;
14342;SDS011;7255;53.596;9.960;2023-02-21T13:09:24;7.62;;;2.47;;
14342;SDS011;7255;53.596;9.960;2023-02-21T13:11:57;8.60;;;2.95;;
14342;SDS011;7255;53.596;9.960;2023-02-21T13:14:32;5.43;;;2.67;;
14342;SDS011;7255;53.596;9.960;2023-02-21T13:17:02;5.60;;;2.60;;
14342;SDS011;7255;53.596;9.960;2023-02-21T13:19:30;6.43;;;2.60;;
14342;SDS011;7255;53.596;9.960;2023-02-21T13:22:10;4.75;;;2.50;;
14342;SDS011;7255;53.596;9.960;2023-02-21T13:24:47;10.25;;;2.97;;
14342;SDS011;7255;53.596;9.960;2023-02-21T13:27:27;5.75;;;2.78;;
14342;SDS011;7255;53.596;9.960;2023-02-21T13:30:10;10.10;;;3.12;;
14342;SDS011;7255;53.596;9.960;2023-02-21T13:32:39;8.35;;;2.50;;
14342;SDS011;7255;53.596;9.960;2023-02-21T13:35:17;8.85;;;3.20;;
14342;SDS011;7255;53.596;9.960;2023-02-21T13:37:46;5.40;;;2.65;;
14342;SDS011;7255;53.596;9.960;2023-02-21T13:40:17;10.85;;;3.37;;
14342;SDS011;7255;53.596;9.960;2023-02-21T13:42:47;4.72;;;2.17;;
14342;SDS011;7255;53.596;9.960;2023-02-21T13:45:25;6.40;;;2.72;;
14342;SDS011;7255;53.596;9.960;2023-02-21T13:50:46;5.82;;;2.90;;
14342;SDS011;7255;53.596;9.960;2023-02-21T13:53:14;9.27;;;2.87;;
14342;SDS011;7255;53.596;9.960;2023-02-21T13:58:37;7.10;;;2.40;;
14342;SDS011;7255;53.596;9.960;2023-02-21T14:07:43;4.25;;;2.20;;
14342;SDS011;7255;53.596;9.960;2023-02-21T14:10:22;5.72;;;1.83;;
14342;SDS011;7255;53.596;9.960;2023-02-21T14:12:53;7.07;;;2.58;;
14342;SDS011;7255;53.596;9.960;2023-02-21T14:15:21;7.45;;;2.25;;
14342;SDS011;7255;53.596;9.960;2023-02-21T14:17:50;8.20;;;2.60;;
14342;SDS011;7255;53.596;9.960;2023-02-21T14:20:18;6.30;;;2.22;;
14342;SDS011;7255;53.596;9.960;2023-02-21T14:22:48;4.12;;;1.70;;
14342;SDS011;7255;53.596;9.960;2023-02-21T14:25:18;5.90;;;2.17;;
14342;SDS011;7255;53.596;9.960;2023-02-21T14:27:48;11.57;;;2.28;;
14342;SDS011;7255;53.596;9.960;2023-02-21T14:30:25;8.15;;;2.40;;
14342;SDS011;7255;53.596;9.960;2023-02-21T14:32:55;6.93;;;1.95;;
14342;SDS011;7255;53.596;9.960;2023-02-21T14:35:32;6.55;;;2.40;;
14342;SDS011;7255;53.596;9.960;2023-02-21T14:38:02;4.72;;;2.33;;
14342;SDS011;7255;53.596;9.960;2023-02-21T14:40:34;7.95;;;2.58;;
14342;SDS011;7255;53.596;9.960;2023-02-21T14:46:19;7.95;;;2.30;;
14342;SDS011;7255;53.596;9.960;2023-02-21T14:49:07;5.45;;;1.98;;
14342;SDS011;7255;53.596;9.960;2023-02-21T14:51:57;5.78;;;2.25;;
14342;SDS011;7255;53.596;9.960;2023-02-21T14:54:55;7.40;;;2.58;;
14342;SDS011;7255;53.596;9.960;2023-02-21T14:57:53;5.40;;;2.35;;
14342;SDS011;7255;53.596;9.960;2023-02-21T15:00:36;10.63;;;2.80;;
14342;SDS011;7255;53.596;9.960;2023-02-21T15:03:11;4.72;;;1.90;;
14342;SDS011;7255;53.596;9.960;2023-02-21T15:05:44;5.32;;;2.05;;
14342;SDS011;7255;53.596;9.960;2023-02-21T15:08:20;8.68;;;2.20;;
14342;SDS011;7255;53.596;9.960;2023-02-21T15:10:49;6.37;;;2.30;;
14342;SDS011;7255;53.596;9.960;2023-02-21T15:13:21;7.53;;;2.75;;
14342;SDS011;7255;53.596;9.960;2023-02-21T15:15:54;5.15;;;2.20;;
14342;SDS011;7255;53.596;9.960;2023-02-21T15:18:24;6.82;;;1.98;;
14342;SDS011;7255;53.596;9.960;2023-02-21T15:21:04;7.40;;;2.62;;
14342;SDS011;7255;53.596;9.960;2023-02-21T15:23:32;3.15;;;1.62;;
14342;SDS011;7255;53.596;9.960;2023-02-21T15:25:59;5.65;;;2.03;;
14342;SDS011;7255;53.596;9.960;2023-02-21T15:28:28;5.20;;;2.87;;
14342;SDS011;7255;53.596;9.960;2023-02-21T15:30:59;4.40;;;2.12;;
14342;SDS011;7255;53.596;9.960;2023-02-21T15:33:27;5.40;;;2.17;;
14342;SDS011;7255;53.596;9.960;2023-02-21T15:35:57;5.30;;;2.30;;
14342;SDS011;7255;53.596;9.960;2023-02-21T15:38:29;6.70;;;2.20;;
14342;SDS011;7255;53.596;9.960;2023-02-21T15:40:59;5.10;;;2.12;;
14342;SDS011;7255;53.596;9.960;2023-02-21T15:43:34;6.87;;;2.47;;
14342;SDS011;7255;53.596;9.960;2023-02-21T15:46:05;5.18;;;2.35;;
14342;SDS011;7255;53.596;9.960;2023-02-21T15:48:36;9.00;;;3.03;;
14342;SDS011;7255;53.596;9.960;2023-02-21T15:51:04;9.35;;;2.55;;
14342;SDS011;7255;53.596;9.960;2023-02-21T15:53:34;6.75;;;2.42;;